createdAt,value
2019-03-30T00:00:45.082Z,100648.59
2019-03-30T00:01:46.464Z,100652.77
2019-03-30T00:02:48.849Z,100653.63
2019-03-30T00:03:50.352Z,100660.15
2019-03-30T00:04:51.729Z,100655.11
2019-03-30T00:05:53.125Z,100669.88
2019-03-30T00:06:54.505Z,100664.17
2019-03-30T00:07:55.904Z,100662.00
2019-03-30T00:08:58.320Z,100674.09
2019-03-30T00:09:59.718Z,100671.89
2019-03-30T00:11:01.214Z,100675.09
2019-03-30T00:12:02.697Z,100680.95
2019-03-30T00:13:04.093Z,100676.92
2019-03-30T00:14:05.516Z,100672.07
2019-03-30T00:15:06.892Z,100673.91
2019-03-30T00:16:08.282Z,100672.22
2019-03-30T00:17:09.652Z,100670.39
2019-03-30T00:18:11.057Z,100675.24
2019-03-30T00:19:12.446Z,100673.56
2019-03-30T00:20:13.933Z,100675.77
2019-03-30T00:21:15.337Z,100674.42
2019-03-30T00:22:16.706Z,100673.08
2019-03-30T00:23:18.099Z,100669.53
2019-03-30T00:24:19.549Z,100670.20
2019-03-30T00:25:20.956Z,100666.52
2019-03-30T00:26:22.373Z,100666.52
2019-03-30T00:27:23.763Z,100667.37
2019-03-30T00:28:25.331Z,100670.87
2019-03-30T00:29:26.727Z,100666.52
2019-03-30T00:30:29.119Z,100663.83
2019-03-30T00:31:30.508Z,100665.51
2019-03-30T00:32:31.896Z,100653.77
2019-03-30T00:33:33.385Z,100654.28
2019-03-30T00:34:34.788Z,100651.08
2019-03-30T00:35:36.247Z,100655.29
2019-03-30T00:36:37.651Z,100655.29
2019-03-30T00:37:39.038Z,100658.45
2019-03-30T00:38:40.436Z,100664.83
2019-03-30T00:39:41.819Z,100660.13
2019-03-30T00:40:43.213Z,100661.47
2019-03-30T00:41:45.925Z,100664.82
2019-03-30T00:42:47.514Z,100660.46
2019-03-30T00:43:48.894Z,100661.47
2019-03-30T00:44:50.398Z,100658.78
2019-03-30T00:45:51.772Z,100658.44
2019-03-30T00:46:53.183Z,100662.62
2019-03-30T00:47:54.655Z,100666.30
2019-03-30T00:48:56.162Z,100663.28
2019-03-30T00:49:57.543Z,100660.26
2019-03-30T00:50:58.931Z,100655.07
2019-03-30T00:52:00.326Z,100654.40
2019-03-30T00:53:01.721Z,100653.20
2019-03-30T00:54:03.114Z,100653.38
2019-03-30T00:55:05.435Z,100652.53
2019-03-30T00:56:06.907Z,100656.06
2019-03-30T00:57:08.296Z,100652.19
2019-03-30T00:58:09.721Z,100646.33
2019-03-30T00:59:11.178Z,100650.17
2019-03-30T01:00:13.073Z,100656.39
2019-03-30T01:01:14.860Z,100643.13
2019-03-30T01:02:16.251Z,100647.66
2019-03-30T01:03:17.641Z,100654.37
2019-03-30T01:04:19.016Z,100656.69
2019-03-30T01:05:20.434Z,100654.97
2019-03-30T01:06:21.799Z,100659.00
2019-03-30T01:07:23.188Z,100657.66
2019-03-30T01:08:24.559Z,100658.66
2019-03-30T01:09:27.102Z,100657.66
2019-03-30T01:10:28.591Z,100658.17
2019-03-30T01:11:29.969Z,100657.32
2019-03-30T01:12:31.833Z,100658.66
2019-03-30T01:13:33.236Z,100659.52
2019-03-30T01:14:34.633Z,100659.00
2019-03-30T01:15:36.029Z,100654.97
2019-03-30T01:16:37.397Z,100657.17
2019-03-30T01:17:38.796Z,100658.52
2019-03-30T01:18:40.293Z,100653.15
2019-03-30T01:19:41.697Z,100655.34
2019-03-30T01:20:43.090Z,100652.14
2019-03-30T01:21:44.476Z,100656.17
2019-03-30T01:22:45.866Z,100649.98
2019-03-30T01:23:47.255Z,100651.32
2019-03-30T01:24:48.644Z,100654.37
2019-03-30T01:25:50.040Z,100655.34
2019-03-30T01:26:51.421Z,100660.72
2019-03-30T01:27:52.814Z,100658.73
2019-03-30T01:28:55.291Z,100658.73
2019-03-30T01:29:56.745Z,100661.77
2019-03-30T01:30:58.322Z,100664.93
2019-03-30T01:31:59.709Z,100661.42
2019-03-30T01:33:01.095Z,100652.52
2019-03-30T01:34:02.560Z,100657.06
2019-03-30T01:35:05.461Z,100649.01
2019-03-30T01:36:07.077Z,100655.34
2019-03-30T01:37:08.454Z,100654.00
2019-03-30T01:38:09.854Z,100649.12
2019-03-30T01:39:12.234Z,100649.61
2019-03-30T01:40:13.663Z,100646.92
2019-03-30T01:41:15.063Z,100649.27
2019-03-30T01:42:16.506Z,100644.76
2019-03-30T01:43:24.012Z,100646.58
2019-03-30T01:44:25.417Z,100642.22
2019-03-30T01:45:26.925Z,100651.13
2019-03-30T01:46:28.350Z,100651.61
2019-03-30T01:47:29.738Z,100645.56
2019-03-30T01:48:31.252Z,100646.57
2019-03-30T01:49:32.737Z,100637.36
2019-03-30T01:50:34.234Z,100644.55
2019-03-30T01:51:35.724Z,100642.39
2019-03-30T01:52:37.136Z,100638.51
2019-03-30T01:53:38.653Z,100638.02
2019-03-30T01:54:40.061Z,100639.52
2019-03-30T01:55:41.468Z,100639.52
2019-03-30T01:56:42.977Z,100636.83
2019-03-30T01:57:44.456Z,100644.05
2019-03-30T01:58:45.859Z,100644.88
2019-03-30T01:59:47.301Z,100645.88
2019-03-30T02:00:49.179Z,100642.38
2019-03-30T02:01:50.572Z,100649.42
2019-03-30T02:02:51.977Z,100647.23
2019-03-30T02:03:53.384Z,100640.52
2019-03-30T02:04:54.791Z,100644.55
2019-03-30T02:05:56.267Z,100641.38
2019-03-30T02:06:57.616Z,100639.52
2019-03-30T02:08:00.092Z,100637.84
2019-03-30T02:09:01.487Z,100627.10
2019-03-30T02:10:04.960Z,100634.67
2019-03-30T02:11:06.450Z,100639.85
2019-03-30T02:12:07.829Z,100635.83
2019-03-30T02:13:09.436Z,100636.00
2019-03-30T02:14:12.816Z,100639.52
2019-03-30T02:15:14.185Z,100639.03
2019-03-30T02:16:15.703Z,100637.17
2019-03-30T02:17:20.142Z,100638.02
2019-03-30T02:18:20.685Z,100637.69
2019-03-30T02:19:22.279Z,100635.83
2019-03-30T02:20:36.009Z,100637.51
2019-03-30T02:21:37.405Z,100640.19
2019-03-30T02:22:38.828Z,100649.77
2019-03-30T02:23:40.242Z,100648.58
2019-03-30T02:24:41.752Z,100646.41
2019-03-30T02:25:43.160Z,100641.39
2019-03-30T02:26:44.578Z,100645.41
2019-03-30T02:27:45.973Z,100644.06
2019-03-30T02:28:47.359Z,100644.55
2019-03-30T02:29:48.748Z,100640.87
2019-03-30T02:30:50.301Z,100643.55
2019-03-30T02:31:51.684Z,100643.55
2019-03-30T02:32:53.178Z,100641.72
2019-03-30T02:33:54.572Z,100630.47
2019-03-30T02:34:56.060Z,100624.77
2019-03-30T02:35:57.449Z,100626.45
2019-03-30T02:36:58.830Z,100624.28
2019-03-30T02:38:00.240Z,100623.95
2019-03-30T02:39:01.604Z,100621.26
2019-03-30T02:40:05.612Z,100627.11
2019-03-30T02:41:06.978Z,100621.75
2019-03-30T02:42:08.485Z,100622.27
2019-03-30T02:43:09.873Z,100623.27
2019-03-30T02:44:11.258Z,100619.39
2019-03-30T02:45:13.135Z,100617.70
2019-03-30T02:46:16.334Z,100616.88
2019-03-30T02:47:17.720Z,100617.38
2019-03-30T02:48:19.144Z,100610.33
2019-03-30T02:49:20.606Z,100615.88
2019-03-30T02:50:22.030Z,100612.00
2019-03-30T02:51:23.502Z,100608.97
2019-03-30T02:52:24.907Z,100612.17
2019-03-30T02:53:26.416Z,100608.15
2019-03-30T02:54:27.916Z,100607.63
2019-03-30T02:55:29.296Z,100611.31
2019-03-30T02:56:30.784Z,100602.92
2019-03-30T02:57:32.170Z,100596.73
2019-03-30T02:58:33.603Z,100595.88
2019-03-30T02:59:34.984Z,100595.55
2019-03-30T03:00:36.362Z,100595.55
2019-03-30T03:01:37.826Z,100597.22
2019-03-30T03:02:39.215Z,100596.89
2019-03-30T03:03:40.704Z,100599.57
2019-03-30T03:04:42.195Z,100600.91
2019-03-30T03:05:43.697Z,100600.42
2019-03-30T03:06:45.079Z,100603.59
2019-03-30T03:07:46.477Z,100598.72
2019-03-30T03:08:48.084Z,100602.73
2019-03-30T03:09:49.473Z,100604.08
2019-03-30T03:10:50.879Z,100599.57
2019-03-30T03:11:52.253Z,100599.91
2019-03-30T03:12:53.754Z,100608.30
2019-03-30T03:13:55.165Z,100606.47
2019-03-30T03:14:56.581Z,100605.61
2019-03-30T03:15:58.546Z,100608.63
2019-03-30T03:16:59.958Z,100605.95
2019-03-30T03:18:01.365Z,100602.27
2019-03-30T03:19:02.761Z,100604.95
2019-03-30T03:20:05.149Z,100607.97
2019-03-30T03:21:08.597Z,100604.95
2019-03-30T03:22:09.814Z,100603.95
2019-03-30T03:23:11.310Z,100596.23
2019-03-30T03:24:12.681Z,100590.87
2019-03-30T03:25:14.286Z,100591.05
2019-03-30T03:26:15.690Z,100595.55
2019-03-30T03:27:17.094Z,100589.19
2019-03-30T03:28:18.612Z,100592.05
2019-03-30T03:29:20.000Z,100590.19
2019-03-30T03:30:21.373Z,100594.73
2019-03-30T03:31:22.821Z,100591.53
2019-03-30T03:32:24.302Z,100590.19
2019-03-30T03:33:25.775Z,100589.37
2019-03-30T03:34:27.176Z,100587.17
2019-03-30T03:35:28.560Z,100592.87
2019-03-30T03:36:29.948Z,100596.90
2019-03-30T03:37:44.578Z,100595.73
2019-03-30T03:38:37.048Z,100592.20
2019-03-30T03:39:38.450Z,100594.88
2019-03-30T03:40:39.832Z,100598.42
2019-03-30T03:41:41.270Z,100595.88
2019-03-30T03:42:42.685Z,100596.89
2019-03-30T03:43:45.074Z,100600.91
2019-03-30T03:44:46.487Z,100597.89
2019-03-30T03:45:47.871Z,100598.55
2019-03-30T03:46:49.511Z,100599.89
2019-03-30T03:47:50.902Z,100599.89
2019-03-30T03:48:52.296Z,100600.38
2019-03-30T03:49:53.794Z,100604.59
2019-03-30T03:51:01.869Z,100608.09
2019-03-30T03:52:04.865Z,100607.61
2019-03-30T03:53:06.437Z,100598.70
2019-03-30T03:54:07.917Z,100604.92
2019-03-30T03:55:09.304Z,100608.43
2019-03-30T03:56:12.990Z,100603.41
2019-03-30T03:57:16.483Z,100610.63
2019-03-30T03:58:21.471Z,100610.63
2019-03-30T03:59:25.653Z,100610.97
2019-03-30T04:00:27.543Z,100602.91
2019-03-30T04:01:32.535Z,100610.45
2019-03-30T04:02:35.594Z,100603.25
2019-03-30T04:03:39.875Z,100602.25
2019-03-30T04:04:47.490Z,100604.59
2019-03-30T04:05:47.501Z,100603.25
2019-03-30T04:06:50.196Z,100604.59
2019-03-30T04:07:54.875Z,100596.21
2019-03-30T04:08:59.891Z,100599.05
2019-03-30T04:10:04.962Z,100602.58
2019-03-30T04:11:10.964Z,100606.09
2019-03-30T04:12:14.136Z,100603.92
2019-03-30T04:13:15.631Z,100603.06
2019-03-30T04:14:19.320Z,100602.58
2019-03-30T04:15:24.034Z,100602.73
2019-03-30T04:16:25.409Z,100609.77
2019-03-30T04:17:26.815Z,100610.11
2019-03-30T04:18:28.212Z,100608.28
2019-03-30T04:19:29.622Z,100601.58
2019-03-30T04:20:31.038Z,100606.94
2019-03-30T04:21:43.812Z,100621.03
2019-03-30T04:22:35.727Z,100618.35
2019-03-30T04:23:37.139Z,100616.00
2019-03-30T04:24:38.524Z,100616.86
2019-03-30T04:25:39.983Z,100611.98
2019-03-30T04:26:41.333Z,100614.66
2019-03-30T04:27:42.908Z,100612.32
2019-03-30T04:28:44.304Z,100612.32
2019-03-30T04:29:45.684Z,100606.13
2019-03-30T04:30:47.197Z,100613.32
2019-03-30T04:31:48.688Z,100615.52
2019-03-30T04:32:50.159Z,100618.69
2019-03-30T04:33:51.568Z,100621.71
2019-03-30T04:34:53.097Z,100620.37
2019-03-30T04:35:54.498Z,100620.89
2019-03-30T04:36:55.888Z,100623.91
2019-03-30T04:37:57.270Z,100623.05
2019-03-30T04:38:58.663Z,100623.05
2019-03-30T04:40:00.037Z,100619.20
2019-03-30T04:41:01.551Z,100624.58
2019-03-30T04:42:02.948Z,100630.42
2019-03-30T04:43:04.350Z,100631.09
2019-03-30T04:44:06.754Z,100630.57
2019-03-30T04:45:08.259Z,100630.23
2019-03-30T04:46:09.668Z,100632.09
2019-03-30T04:47:11.072Z,100626.39
2019-03-30T04:48:12.456Z,100632.23
2019-03-30T04:49:13.857Z,100622.69
2019-03-30T04:50:16.232Z,100624.03
2019-03-30T04:51:17.627Z,100628.39
2019-03-30T04:52:19.119Z,100624.52
2019-03-30T04:53:20.517Z,100630.39
2019-03-30T04:54:21.929Z,100626.71
2019-03-30T04:55:23.328Z,100629.87
2019-03-30T04:56:24.737Z,100622.83
2019-03-30T04:57:26.136Z,100624.17
2019-03-30T04:58:27.509Z,100622.83
2019-03-30T04:59:28.905Z,100632.08
2019-03-30T05:00:30.273Z,100641.47
2019-03-30T05:01:31.727Z,100641.47
2019-03-30T05:02:33.255Z,100641.47
2019-03-30T05:03:34.842Z,100640.47
2019-03-30T05:04:36.256Z,100640.47
2019-03-30T05:05:37.660Z,100635.09
2019-03-30T05:06:39.072Z,100634.92
2019-03-30T05:07:40.476Z,100635.58
2019-03-30T05:08:42.905Z,100636.44
2019-03-30T05:09:44.462Z,100638.60
2019-03-30T05:10:45.834Z,100639.80
2019-03-30T05:11:47.236Z,100639.28
2019-03-30T05:12:48.633Z,100639.28
2019-03-30T05:13:50.050Z,100636.59
2019-03-30T05:14:51.455Z,100634.77
2019-03-30T05:15:52.869Z,100635.78
2019-03-30T05:16:54.283Z,100640.63
2019-03-30T05:17:55.681Z,100635.44
2019-03-30T05:18:57.153Z,100637.12
2019-03-30T05:19:58.567Z,100634.44
2019-03-30T05:21:00.048Z,100638.45
2019-03-30T05:23:08.717Z,100636.26
2019-03-30T05:24:10.130Z,100639.45
2019-03-30T05:25:11.611Z,100639.45
2019-03-30T05:26:13.032Z,100643.80
2019-03-30T05:27:14.444Z,100641.61
2019-03-30T05:28:15.886Z,100644.81
2019-03-30T05:29:17.231Z,100644.95
2019-03-30T05:30:18.628Z,100636.08
2019-03-30T05:31:20.006Z,100633.06
2019-03-30T05:32:21.406Z,100631.72
2019-03-30T05:33:22.799Z,100638.43
2019-03-30T05:34:24.285Z,100637.42
2019-03-30T05:35:25.699Z,100637.09
2019-03-30T05:36:27.113Z,100631.72
2019-03-30T05:37:28.523Z,100637.09
2019-03-30T05:38:29.926Z,100639.77
2019-03-30T05:39:31.283Z,100641.11
2019-03-30T05:40:32.786Z,100639.77
2019-03-30T05:41:34.168Z,100645.95
2019-03-30T05:42:35.568Z,100645.81
2019-03-30T05:43:37.010Z,100648.50
2019-03-30T05:44:38.418Z,100654.20
2019-03-30T05:45:39.841Z,100646.16
2019-03-30T05:46:41.258Z,100651.52
2019-03-30T05:47:42.567Z,100650.17
2019-03-30T05:48:43.996Z,100654.54
2019-03-30T05:49:45.372Z,100656.70
2019-03-30T05:50:46.774Z,100656.70
2019-03-30T05:51:48.150Z,100657.56
2019-03-30T05:52:51.482Z,100660.24
2019-03-30T05:53:52.881Z,100659.92
2019-03-30T05:54:54.297Z,100658.72
2019-03-30T05:55:55.719Z,100661.75
2019-03-30T05:56:57.126Z,100671.99
2019-03-30T05:57:58.534Z,100665.11
2019-03-30T05:58:59.938Z,100667.79
2019-03-30T06:00:01.225Z,100674.02
2019-03-30T06:01:02.608Z,100672.49
2019-03-30T06:02:03.980Z,100670.81
2019-03-30T06:03:05.386Z,100676.70
2019-03-30T06:04:07.666Z,100674.84
2019-03-30T06:05:09.141Z,100676.70
2019-03-30T06:06:10.561Z,100679.72
2019-03-30T06:07:11.976Z,100680.72
2019-03-30T06:08:13.394Z,100678.03
2019-03-30T06:09:14.792Z,100679.38
2019-03-30T06:10:16.163Z,100683.06
2019-03-30T06:11:17.560Z,100683.06
2019-03-30T06:12:18.939Z,100680.04
2019-03-30T06:13:20.344Z,100681.05
2019-03-30T06:14:21.876Z,100681.53
2019-03-30T06:15:23.396Z,100677.69
2019-03-30T06:16:24.807Z,100673.80
2019-03-30T06:17:26.217Z,100674.32
2019-03-30T06:18:27.638Z,100671.78
2019-03-30T06:19:29.070Z,100678.14
2019-03-30T06:20:30.449Z,100680.83
2019-03-30T06:21:31.958Z,100676.47
2019-03-30T06:22:40.077Z,100679.48
2019-03-30T06:23:36.938Z,100685.70
2019-03-30T06:24:38.367Z,100680.34
2019-03-30T06:25:39.771Z,100684.71
2019-03-30T06:26:41.282Z,100693.23
2019-03-30T06:27:42.704Z,100690.08
2019-03-30T06:28:44.122Z,100690.90
2019-03-30T06:30:05.677Z,100699.80
2019-03-30T06:31:07.052Z,100702.48
2019-03-30T06:32:08.450Z,100686.89
2019-03-30T06:33:09.828Z,100685.39
2019-03-30T06:34:11.210Z,100681.36
2019-03-30T06:35:12.774Z,100680.02
2019-03-30T06:36:14.256Z,100682.37
2019-03-30T06:37:15.534Z,100680.36
2019-03-30T06:38:16.928Z,100675.82
2019-03-30T06:39:18.381Z,100667.77
2019-03-30T06:40:19.771Z,100676.50
2019-03-30T06:41:21.157Z,100677.50
2019-03-30T06:42:22.540Z,100675.68
2019-03-30T06:43:23.927Z,100680.04
2019-03-30T06:44:25.350Z,100683.06
2019-03-30T06:45:26.852Z,100678.19
2019-03-30T06:46:28.337Z,100681.72
2019-03-30T06:47:29.742Z,100681.20
2019-03-30T06:48:31.218Z,100677.70
2019-03-30T06:49:32.728Z,100678.03
2019-03-30T06:50:34.116Z,100679.72
2019-03-30T06:51:35.509Z,100680.06
2019-03-30T06:52:36.896Z,100674.03
2019-03-30T06:53:38.284Z,100677.05
2019-03-30T06:54:41.662Z,100675.05
2019-03-30T06:55:43.081Z,100671.36
2019-03-30T06:56:44.460Z,100674.91
2019-03-30T06:57:45.963Z,100675.73
2019-03-30T06:58:47.336Z,100675.38
2019-03-30T06:59:48.736Z,100676.73
2019-03-30T07:00:50.116Z,100683.95
2019-03-30T07:01:51.604Z,100675.56
2019-03-30T07:02:52.995Z,100676.05
2019-03-30T07:03:54.568Z,100673.36
2019-03-30T07:04:55.939Z,100677.39
2019-03-30T07:05:58.697Z,100675.71
2019-03-30T07:07:01.272Z,100670.69
2019-03-30T07:08:02.644Z,100669.34
2019-03-30T07:09:04.825Z,100670.02
2019-03-30T07:10:06.675Z,100665.33
2019-03-30T07:11:20.646Z,100668.36
2019-03-30T07:12:12.039Z,100660.98
2019-03-30T07:13:13.819Z,100666.36
2019-03-30T07:14:15.110Z,100659.33
2019-03-30T07:15:16.494Z,100664.37
2019-03-30T07:16:17.882Z,100664.45
2019-03-30T07:17:19.560Z,100667.14
2019-03-30T07:18:20.954Z,100666.81
2019-03-30T07:19:25.930Z,100667.16
2019-03-30T07:20:28.421Z,100664.82
2019-03-30T07:21:29.805Z,100669.20
2019-03-30T07:22:31.187Z,100665.70
2019-03-30T07:23:32.565Z,100668.55
2019-03-30T07:24:33.959Z,100668.89
2019-03-30T07:25:39.090Z,100663.55
2019-03-30T07:26:42.691Z,100658.19
2019-03-30T07:27:44.085Z,100660.87
2019-03-30T07:28:47.161Z,100659.02
2019-03-30T07:29:48.762Z,100655.02
2019-03-30T07:30:50.151Z,100654.35
2019-03-30T07:31:51.633Z,100660.06
2019-03-30T07:32:53.020Z,100659.53
2019-03-30T07:33:54.411Z,100662.62
2019-03-30T07:34:55.693Z,100665.31
2019-03-30T07:35:57.078Z,100660.27
2019-03-30T07:36:58.548Z,100650.00
2019-03-30T07:37:59.924Z,100658.39
2019-03-30T07:39:01.302Z,100657.90
2019-03-30T07:40:05.093Z,100656.88
2019-03-30T07:41:07.461Z,100649.81
2019-03-30T07:42:08.857Z,100652.83
2019-03-30T07:43:10.237Z,100660.41
2019-03-30T07:44:11.626Z,100654.69
2019-03-30T07:45:13.133Z,100660.58
2019-03-30T07:46:14.744Z,100660.04
2019-03-30T07:47:16.042Z,100662.91
2019-03-30T07:48:17.420Z,100660.88
2019-03-30T07:49:18.838Z,100664.58
2019-03-30T07:50:21.321Z,100665.73
2019-03-30T07:51:22.816Z,100669.27
2019-03-30T07:52:24.231Z,100664.22
2019-03-30T07:53:27.028Z,100655.47
2019-03-30T07:54:28.672Z,100661.70
2019-03-30T07:55:30.084Z,100666.41
2019-03-30T07:56:32.658Z,100651.27
2019-03-30T07:57:34.085Z,100658.13
2019-03-30T07:58:35.565Z,100649.56
2019-03-30T07:59:36.965Z,100652.26
2019-03-30T08:00:38.456Z,100653.45
2019-03-30T08:01:39.844Z,100655.98
2019-03-30T08:02:41.227Z,100656.12
2019-03-30T08:03:42.649Z,100660.16
2019-03-30T08:04:44.048Z,100653.43
2019-03-30T08:05:45.453Z,100650.25
2019-03-30T08:06:46.737Z,100658.81
2019-03-30T08:07:48.204Z,100659.14
2019-03-30T08:08:49.572Z,100651.59
2019-03-30T08:09:50.982Z,100656.45
2019-03-30T08:10:52.363Z,100655.62
2019-03-30T08:11:53.766Z,100652.08
2019-03-30T08:12:55.378Z,100650.74
2019-03-30T08:13:56.868Z,100648.05
2019-03-30T08:14:59.352Z,100650.74
2019-03-30T08:16:00.744Z,100650.74
2019-03-30T08:17:02.036Z,100641.52
2019-03-30T08:18:04.133Z,100642.00
2019-03-30T08:19:05.610Z,100638.82
2019-03-30T08:20:08.104Z,100637.97
2019-03-30T08:21:09.483Z,100639.84
2019-03-30T08:22:10.900Z,100632.25
2019-03-30T08:23:12.474Z,100638.48
2019-03-30T08:24:13.961Z,100638.48
2019-03-30T08:25:15.252Z,100633.59
2019-03-30T08:26:16.636Z,100632.77
2019-03-30T08:27:18.127Z,100636.29
2019-03-30T08:28:19.532Z,100634.94
2019-03-30T08:29:20.907Z,100637.63
2019-03-30T08:30:22.312Z,100634.94
2019-03-30T08:31:23.689Z,100635.28
2019-03-30T08:32:25.089Z,100628.22
2019-03-30T08:33:26.476Z,100629.07
2019-03-30T08:34:27.664Z,100628.55
2019-03-30T08:35:29.052Z,100625.52
2019-03-30T08:36:30.439Z,100623.16
2019-03-30T08:37:31.816Z,100625.37
2019-03-30T08:38:33.385Z,100625.17
2019-03-30T08:39:34.764Z,100628.53
2019-03-30T08:40:36.143Z,100628.20
2019-03-30T08:41:37.438Z,100630.73
2019-03-30T08:42:38.819Z,100620.78
2019-03-30T08:43:40.134Z,100621.16
2019-03-30T08:44:41.518Z,100619.81
2019-03-30T08:45:42.905Z,100616.10
2019-03-30T08:46:44.295Z,100617.78
2019-03-30T08:47:45.685Z,100614.75
2019-03-30T08:48:47.097Z,100612.89
2019-03-30T08:49:48.468Z,100608.85
2019-03-30T08:50:49.864Z,100614.75
2019-03-30T08:51:51.237Z,100609.87
2019-03-30T08:52:52.642Z,100614.23
2019-03-30T08:53:55.124Z,100606.35
2019-03-30T08:54:56.715Z,100610.39
2019-03-30T08:55:58.096Z,100605.50
2019-03-30T08:56:59.483Z,100602.47
2019-03-30T08:58:00.978Z,100609.69
2019-03-30T08:59:02.401Z,100605.32
2019-03-30T09:00:05.976Z,100604.31
2019-03-30T09:01:08.977Z,100600.13
2019-03-30T09:02:10.367Z,100603.31
2019-03-30T09:03:11.847Z,100596.25
2019-03-30T09:04:13.241Z,100599.63
2019-03-30T09:05:14.525Z,100598.44
2019-03-30T09:06:15.907Z,100595.42
2019-03-30T09:07:17.293Z,100600.28
2019-03-30T09:08:18.666Z,100601.29
2019-03-30T09:09:20.112Z,100593.91
2019-03-30T09:10:21.498Z,100603.65
2019-03-30T09:11:22.877Z,100599.61
2019-03-30T09:12:24.279Z,100605.19
2019-03-30T09:13:25.650Z,100607.02
2019-03-30T09:14:27.057Z,100609.71
2019-03-30T09:15:28.444Z,100605.67
2019-03-30T09:16:29.832Z,100613.27
2019-03-30T09:17:32.222Z,100606.69
2019-03-30T09:18:33.618Z,100608.89
2019-03-30T09:19:35.023Z,100611.06
2019-03-30T09:20:36.392Z,100604.86
2019-03-30T09:21:37.695Z,100607.02
2019-03-30T09:22:39.069Z,100605.67
2019-03-30T09:23:40.464Z,100607.22
2019-03-30T09:24:41.866Z,100602.98
2019-03-30T09:25:43.238Z,100610.05
2019-03-30T09:26:44.639Z,100610.37
2019-03-30T09:27:46.035Z,100605.85
2019-03-30T09:28:47.408Z,100605.00
2019-03-30T09:29:48.792Z,100609.89
2019-03-30T09:30:50.201Z,100603.16
2019-03-30T09:31:51.612Z,100605.00
2019-03-30T09:32:53.027Z,100601.29
2019-03-30T09:33:54.437Z,100608.02
2019-03-30T09:34:55.839Z,100606.67
2019-03-30T09:35:57.220Z,100603.49
2019-03-30T09:36:58.617Z,100600.80
2019-03-30T09:38:00.105Z,100611.05
2019-03-30T09:39:01.604Z,100603.98
2019-03-30T09:40:06.752Z,100603.83
2019-03-30T09:41:08.129Z,100603.98
2019-03-30T09:42:09.507Z,100609.70
2019-03-30T09:43:10.889Z,100606.67
2019-03-30T09:44:12.279Z,100611.56
2019-03-30T09:45:13.996Z,100605.85
2019-03-30T09:46:16.500Z,100611.72
2019-03-30T09:47:17.916Z,100605.52
2019-03-30T09:48:20.324Z,100605.67
2019-03-30T09:49:21.736Z,100605.19
2019-03-30T09:50:23.144Z,100605.02
2019-03-30T09:51:24.425Z,100604.19
2019-03-30T09:52:25.831Z,100606.03
2019-03-30T09:53:27.005Z,100603.00
2019-03-30T09:54:28.304Z,100597.30
2019-03-30T09:55:30.726Z,100601.33
2019-03-30T09:56:32.137Z,100606.71
2019-03-30T09:57:33.548Z,100601.00
2019-03-30T09:58:34.967Z,100603.02
2019-03-30T09:59:36.380Z,100599.81
2019-03-30T10:00:40.457Z,100601.34
2019-03-30T10:01:41.685Z,100595.63
2019-03-30T10:02:43.086Z,100592.42
2019-03-30T10:03:44.470Z,100600.16
2019-03-30T10:04:45.872Z,100599.83
2019-03-30T10:05:47.259Z,100591.75
2019-03-30T10:06:48.669Z,100595.45
2019-03-30T10:07:50.088Z,100589.59
2019-03-30T10:08:51.502Z,100584.36
2019-03-30T10:09:52.896Z,100590.27
2019-03-30T10:10:54.373Z,100580.52
2019-03-30T10:11:55.745Z,100584.03
2019-03-30T10:12:57.144Z,100583.21
2019-03-30T10:13:58.422Z,100584.22
2019-03-30T10:14:59.823Z,100588.26
2019-03-30T10:16:01.208Z,100585.56
2019-03-30T10:17:02.706Z,100584.22
2019-03-30T10:18:04.085Z,100582.55
2019-03-30T10:19:05.474Z,100586.05
2019-03-30T10:20:07.362Z,100585.56
2019-03-30T10:21:09.752Z,100589.94
2019-03-30T10:22:11.118Z,100583.55
2019-03-30T10:23:12.514Z,100591.28
2019-03-30T10:24:13.907Z,100591.61
2019-03-30T10:25:15.324Z,100592.95
2019-03-30T10:26:17.224Z,100591.95
2019-03-30T10:27:18.600Z,100588.92
2019-03-30T10:28:19.992Z,100586.37
2019-03-30T10:29:21.384Z,100584.70
2019-03-30T10:30:22.875Z,100585.88
2019-03-30T10:31:24.272Z,100585.36
2019-03-30T10:32:25.802Z,100586.22
2019-03-30T10:33:27.213Z,100576.80
2019-03-30T10:34:28.420Z,100581.16
2019-03-30T10:35:29.836Z,100580.31
2019-03-30T10:36:31.236Z,100579.30
2019-03-30T10:37:32.614Z,100578.29
2019-03-30T10:38:34.024Z,100568.87
2019-03-30T10:39:35.413Z,100572.41
2019-03-30T10:40:36.810Z,100574.61
2019-03-30T10:41:38.259Z,100572.75
2019-03-30T10:42:39.641Z,100569.73
2019-03-30T10:43:41.017Z,100561.16
2019-03-30T10:44:42.418Z,100567.52
2019-03-30T10:45:43.946Z,100565.84
2019-03-30T10:46:45.356Z,100562.34
2019-03-30T10:47:46.734Z,100562.67
2019-03-30T10:48:48.225Z,100559.64
2019-03-30T10:49:49.616Z,100565.03
2019-03-30T10:50:51.007Z,100562.00
2019-03-30T10:51:54.323Z,100562.00
2019-03-30T10:52:55.671Z,100562.83
2019-03-30T10:53:57.075Z,100560.66
2019-03-30T10:54:58.461Z,100556.63
2019-03-30T10:55:59.967Z,100562.00
2019-03-30T10:57:01.354Z,100557.64
2019-03-30T10:58:02.876Z,100554.42
2019-03-30T10:59:04.285Z,100554.95
2019-03-30T11:00:07.500Z,100555.44
2019-03-30T11:01:08.914Z,100557.31
2019-03-30T11:02:10.340Z,100551.07
2019-03-30T11:03:14.045Z,100550.25
2019-03-30T11:04:15.560Z,100547.23
2019-03-30T11:05:16.935Z,100548.38
2019-03-30T11:06:18.336Z,100544.02
2019-03-30T11:07:19.720Z,100542.34
2019-03-30T11:08:21.232Z,100542.86
2019-03-30T11:09:22.696Z,100542.86
2019-03-30T11:10:24.052Z,100539.31
2019-03-30T11:11:25.546Z,100538.30
2019-03-30T11:12:26.996Z,100536.14
2019-03-30T11:13:28.476Z,100527.73
2019-03-30T11:14:29.885Z,100527.22
2019-03-30T11:15:34.078Z,100529.41
2019-03-30T11:16:34.556Z,100527.05
2019-03-30T11:17:36.039Z,100522.50
2019-03-30T11:18:37.423Z,100523.02
2019-03-30T11:19:38.813Z,100526.04
2019-03-30T11:20:40.203Z,100525.71
2019-03-30T11:21:41.584Z,100527.39
2019-03-30T11:22:42.976Z,100520.99
2019-03-30T11:23:44.350Z,100525.03
2019-03-30T11:24:45.817Z,100523.69
2019-03-30T11:25:47.329Z,100526.70
2019-03-30T11:26:49.742Z,100524.34
2019-03-30T11:27:51.277Z,100525.16
2019-03-30T11:28:52.661Z,100517.62
2019-03-30T11:29:54.056Z,100514.41
2019-03-30T11:30:55.432Z,100520.64
2019-03-30T11:31:56.835Z,100516.60
2019-03-30T11:32:58.311Z,100518.61
2019-03-30T11:34:01.407Z,100516.41
2019-03-30T11:35:04.072Z,100514.58
2019-03-30T11:36:05.472Z,100521.14
2019-03-30T11:37:06.876Z,100514.91
2019-03-30T11:38:08.270Z,100516.78
2019-03-30T11:39:09.649Z,100510.05
2019-03-30T11:40:11.045Z,100505.83
2019-03-30T11:41:12.434Z,100510.38
2019-03-30T11:42:13.712Z,100505.49
2019-03-30T11:43:15.162Z,100500.97
2019-03-30T11:44:16.540Z,100511.72
2019-03-30T11:45:17.908Z,100504.14